AirNav   ProFlight Series 2 Aviation Headset
 
 1523 users online  

05TA Brandes Air Field
Sealy, Texas, USA

GOING TO SEALY?


FAA INFORMATION EFFECTIVE 13 AUGUST 2020

Location

FAA Identifier: 05TA
Lat/Long: 29-48-32.6900N 096-15-50.2700W
29-48.544833N 096-15.837833W
29.8090806,-96.2639639
(estimated)
Elevation: 270 ft. / 82 m (estimated)
Variation: 06E (1995)
From city: 6 miles NW of SEALY, TX
Time zone: UTC -5 (UTC -6 during Standard Time)
Zip code: 77474

Airport Operations

Airport use: Private use. Permission required prior to landing
Activation date: 11/1996
Control tower: no
ARTCC: HOUSTON CENTER
FSS: MONTGOMERY COUNTY FLIGHT SERVICE STATION
Attendance: CONTINUOUS
Wind indicator: yes
Segmented circle: no

Airport Communications

WX AWOS-3PT at ELA (13 nm S): 128.475 (979-234-2665)
WX AWOS-3 at 66R (17 nm SW): 123.875 (979-732-2514)
WX AWOS-3 at TME (19 nm E): 119.525 (281-945-5451)

Nearby radio navigation aids

VOR radial/distance  VOR name  Freq  Var
ELAr009/9.2EAGLE LAKE VOR/DME116.4008E
IDUr112/17.8INDUSTRY VORTAC110.2008E
TNVr192/30.7NAVASOTA VOR/DME115.9008E

 
NDB name  Hdg/Dist  Freq  Var  ID
WHARTON347/33.824503EARM .- .-. --

Airport Services

Runway Information

Runway 17/35

Dimensions: 2200 x 100 ft. / 671 x 30 m
Surface: turf, in good condition
RUNWAY 17  RUNWAY 35
Traffic pattern: rightright
Displaced threshold: 240 ft.120 ft.
Obstructions: 50 ft. trees5 ft. fence

Airport Ownership and Management from official FAA records

Ownership: Privately-owned
Owner: JACK W BRANDES
8655 HILLBOLDT ROAD
CAT SPRING, TX 78933
Phone 979-627-5022
Manager: JACK W BRANDES
8655 HILLBOLDT ROAD
CAT SPRING, TX 78933
Phone 979-627-5022
BRANDESJW553@YAHOO.COM

Airport Operational Statistics

Aircraft based on the field: 2
Single engine airplanes: 2
    

Additional Remarks

FOR CD CTC HOUSTON APCH AT 281-443-5844.

Instrument Procedures

There are no published instrument procedures at 05TA.

Some nearby airports with instrument procedures:

KELA - Eagle Lake Airport (13 nm S)
KTME - Houston Executive Airport (19 nm E)
11R - Brenham Municipal Airport (25 nm N)
KIWS - West Houston Airport (31 nm E)
KSGR - Sugar Land Regional Airport (34 nm E)
 
Loc | Ops | Rwys | IFR | FBO | Links
Com | Nav | Svcs | Stats | Notes
Area around 05TA (Brandes Air Field)
 
Road maps at: MapQuest Bing Google
 
Aerial photo
No photo
 
Sectional chart

 
Airport distance calculator
Flying to Brandes Air Field? Find the distance to fly.

From to 05TA

Sunrise and sunset
Times for 13-Aug-2020
 Local
(UTC-5)
 Zulu
(UTC)
Morning civil twilight06:2811:28
Sunrise06:5311:53
Sunset20:0601:06
Evening civil twilight20:3101:31

Current date and time
Zulu (UTC)  13-Aug-2020 17:50:36
Local (UTC-5)  13-Aug-2020 12:50:36
 
METAR
KELA 
13nm S 
131735Z AUTO 24003KT 10SM SCT038 34/24 A2999 RMK AO2 T03410240
K66R 
17nm SW 
131735Z AUTO 17004KT 10SM CLR 32/24 A3001 RMK AO2 T03240236
KTME 
19nm E 
131735Z AUTO VRB05KT 9SM CLR 33/23 A3001 RMK AO2
K11R 
25nm N 
131735Z AUTO 22004KT 10SM CLR 33/24 A3000 RMK AO2 T03320239
TAF
KSGR 
34nm E 
131120Z 1312/1412 19004KT P6SM SKC FM131400 22007KT P6SM SCT250 FM132000 18005KT P6SM FEW250 FM140800 VRB03KT P6SM FEW250
NOTAMs
Click for the latest NOTAMs
NOTAMs are issued by the DoD/FAA and will open in a separate window not controlled by AirNav.

 

 
 

Would you like to see your business listed on this page?

 If your business provides an interesting product or service to pilots, flight crews, aircraft, or users of the Brandes Air Field, you should consider listing it here.  To start the listing process, click on the button below
 
Add a business
 

Other Pages about Brandes Air Field

Update a link
 
Copyright © AirNav, LLC. All rights reserved. Privacy Policy  Contact